Aeroporto :
LOGIN :

Iscrizione | Disclaimer

   EN    FR    IT 

 










Sommario :    VFR   VFR Marginale   IFR   IFR Intensivo   IFR Molto Intensivo
Visibilità : 
Base nubi : 
>= 8 km
>= 3000ft
5 / 8 km
1000 / 3000 ft
1500m / 5 km
500 / 1000 ft
800 / 1500m
200 / 500 ft
< 800m
< 200 ft
Simboli :   Temporali  Nebbia  Neve Forte  Precipitazioni Forti  Vento > 20 kt
SIGMETs :   Varie  Temporali  Ghiacco  Turbolenza  Onda orograficha  Ceneri Vulcaniche






- Altitudine del aeroporto : 1791 ft
- Codice IATA : AOT


LIMW - Aosta

ULTIMO METAR :
  • 231520Z 10015KT 9999 BKN082TCU 18/08 Q1015 RESHRA

METARs OBSOLETI :
  • 231450Z 09017KT 9999 SHRA BKN085TCU 19/09 Q1015
  • 231420Z 09015KT 9999 SHRA BKN080TCU 18/10 Q1014
  • 231350Z 09015KT 9999 BKN094TCU 18/09 Q1015
  • 231320Z 09018KT 9999 BKN096TCU 18/09 Q1014
  • 231250Z 09017KT 9999 BKN095TCU 18/10 Q1015
  • 231220Z 10019KT 9999 BKN075TCU 17/10 Q1015
  • 231150Z 10018KT 9999 FEW065 BKN090 18/10 Q1015
  • 231120Z 10016KT 9999 FEW065 19/09 Q1014
  • 231050Z 09013KT 9999 SCT065 18/09 Q1015

TAF TAF LIMW
Valido dal 23 a 15 ore il 24 a 00 ore UTC


231400Z 2315/2324 10018KT 9999 SCT070
TEMPO 2315/2318 4000 TSRA
BECMG 2317/2319 VRB05KT



MetMap, La meteo Aeronautica in un colpo d'occhio ! - Copyright ORBIFLY Dicembre 2007 - Disclaimer

ORBIFLY MET'MAP TEAM :

Programmazione e sviluppo : Alexandra Zaïnal
Concezione : Baudouin d'Aumeries
Supporto tecnico e logistico : Manuel Goepfert
Aiuto : Marc-Olivier Méhu
Aiuto per la traduzione : Arnaldo La Scala




FONTI E CREDITI :

   NOAA